ETHM weather

Mendig Airfield
Rhineland-Palatinate, Germany

Public forecast

Using degrees Celsius for public forecast. Weather courtesy of forecast.io.

METAR (pilot weather report)

Closest report is Büchel Air Base, 15.1 nm (27.9 km) SW. Retrieved 2019/04/18 22:20 UTC (8 minutes ago):

ETSB 182220Z AUTO 06010KT 9999 // ////// 12/01 Q1025 ///

TAF (pilot weather forecast)

Forecast is more than 12 hours old.

Closest forecast is Büchel Air Base, 15.1 nm (27.9 km) SW. Retrieved 2017/03/11 06:36 UTC (2 years ago):

TAF ETSB 110500Z 1106/1118 13005KT 9999 NSW SCT100 BKN150 BY ETGL